createdAt,value
2018-03-26T00:00:46.527Z,24.20
2018-03-26T00:03:49.703Z,25.60
2018-03-26T00:06:52.833Z,28.30
2018-03-26T00:09:56.031Z,23.73
2018-03-26T00:12:59.461Z,24.17
2018-03-26T00:16:02.604Z,25.20
2018-03-26T00:19:05.750Z,26.93
2018-03-26T00:22:08.901Z,24.90
2018-03-26T00:25:12.022Z,24.17
2018-03-26T00:28:15.163Z,24.73
2018-03-26T00:31:18.291Z,28.20
2018-03-26T00:34:21.421Z,23.70
2018-03-26T00:37:24.565Z,27.73
2018-03-26T00:40:27.762Z,30.20
2018-03-26T00:43:30.890Z,26.50
2018-03-26T00:46:34.049Z,25.03
2018-03-26T00:49:37.222Z,30.60
2018-03-26T00:52:40.356Z,28.83
2018-03-26T00:55:43.538Z,27.97
2018-03-26T00:58:46.674Z,25.37
2018-03-26T01:01:49.815Z,33.10
2018-03-26T01:04:52.949Z,26.87
2018-03-26T01:07:56.094Z,32.80
2018-03-26T01:10:59.248Z,31.23
2018-03-26T01:14:02.397Z,32.63
2018-03-26T01:17:05.594Z,29.43
2018-03-26T01:20:08.713Z,30.37
2018-03-26T01:23:11.883Z,30.50
2018-03-26T01:26:15.025Z,28.87
2018-03-26T01:29:18.177Z,29.00
2018-03-26T01:32:21.305Z,31.27
2018-03-26T01:35:24.474Z,31.37
2018-03-26T01:38:27.647Z,31.93
2018-03-26T01:41:30.774Z,36.53
2018-03-26T01:44:33.912Z,30.23
2018-03-26T01:47:37.081Z,34.70
2018-03-26T01:50:40.220Z,33.30
2018-03-26T01:53:43.405Z,36.13
2018-03-26T01:56:46.530Z,36.80
2018-03-26T01:59:49.698Z,35.27
2018-03-26T02:02:52.837Z,33.80
2018-03-26T02:05:56.025Z,31.60
2018-03-26T02:08:59.229Z,32.97
2018-03-26T02:12:02.427Z,32.20
2018-03-26T02:15:05.587Z,31.73
2018-03-26T02:18:08.772Z,31.60
2018-03-26T02:21:11.906Z,31.17
2018-03-26T02:24:15.061Z,34.03
2018-03-26T02:27:18.266Z,35.00
2018-03-26T02:30:21.416Z,28.47
2018-03-26T02:33:24.552Z,31.17
2018-03-26T02:36:27.690Z,27.97
2018-03-26T02:39:30.841Z,32.07
2018-03-26T02:42:33.991Z,33.33
2018-03-26T02:45:37.128Z,29.20
2018-03-26T02:48:40.289Z,34.43
2018-03-26T02:51:43.416Z,27.10
2018-03-26T02:54:46.545Z,32.43
2018-03-26T02:57:49.690Z,30.10
2018-03-26T03:00:52.822Z,28.27
2018-03-26T03:03:55.959Z,35.03
2018-03-26T03:06:59.118Z,30.47
2018-03-26T03:10:02.258Z,30.90
2018-03-26T03:13:05.398Z,29.33
2018-03-26T03:16:08.739Z,31.13
2018-03-26T03:19:11.900Z,31.50
2018-03-26T03:22:15.045Z,31.53
2018-03-26T03:25:18.183Z,29.57
2018-03-26T03:28:21.314Z,30.97
2018-03-26T03:31:24.453Z,32.17
2018-03-26T03:34:28.170Z,29.93
2018-03-26T03:37:31.374Z,29.63
2018-03-26T03:40:34.539Z,29.77
2018-03-26T03:43:37.679Z,38.90
2018-03-26T03:46:40.850Z,33.97
2018-03-26T03:49:44.006Z,30.37
2018-03-26T03:52:47.144Z,33.83
2018-03-26T03:55:50.302Z,34.10
2018-03-26T03:58:53.459Z,30.63
2018-03-26T04:01:56.602Z,31.17
2018-03-26T04:04:59.765Z,28.63
2018-03-26T04:08:03.191Z,31.50
2018-03-26T04:11:06.329Z,29.03
2018-03-26T04:14:09.494Z,30.63
2018-03-26T04:17:12.648Z,32.67
2018-03-26T04:20:17.687Z,30.43
2018-03-26T04:23:20.819Z,32.20
2018-03-26T04:26:23.960Z,34.77
2018-03-26T04:29:27.098Z,29.33
2018-03-26T04:32:30.273Z,28.77
2018-03-26T04:35:33.402Z,30.97
2018-03-26T04:38:36.537Z,28.83
2018-03-26T04:41:39.723Z,30.03
2018-03-26T04:44:42.890Z,29.97
2018-03-26T04:47:46.092Z,28.97
2018-03-26T04:50:49.271Z,31.33
2018-03-26T04:53:52.420Z,29.97
2018-03-26T04:56:55.558Z,27.00
2018-03-26T04:59:58.747Z,30.90
2018-03-26T05:03:02.007Z,30.40
2018-03-26T05:06:05.126Z,29.83
2018-03-26T05:09:08.280Z,31.87
2018-03-26T05:12:11.489Z,29.77
2018-03-26T05:15:14.661Z,29.27
2018-03-26T05:18:17.833Z,25.97
2018-03-26T05:21:20.946Z,28.80
2018-03-26T05:24:24.068Z,33.10
2018-03-26T05:27:27.198Z,29.33
2018-03-26T05:30:30.381Z,34.97
2018-03-26T05:33:33.518Z,32.77
2018-03-26T05:36:36.664Z,32.43
2018-03-26T05:39:39.833Z,32.23
2018-03-26T05:42:42.976Z,30.67
2018-03-26T05:45:46.154Z,35.67
2018-03-26T05:48:49.302Z,33.73
2018-03-26T05:51:52.447Z,32.33
2018-03-26T05:54:55.702Z,37.03
2018-03-26T05:57:58.898Z,33.30
2018-03-26T06:01:02.067Z,35.03
2018-03-26T06:04:05.296Z,34.00
2018-03-26T06:07:08.418Z,39.43
2018-03-26T06:10:11.616Z,33.73
2018-03-26T06:13:14.807Z,32.40
2018-03-26T06:16:17.985Z,31.90
2018-03-26T06:19:21.190Z,34.73
2018-03-26T06:22:24.366Z,34.77
2018-03-26T06:25:27.667Z,39.77
2018-03-26T06:28:30.889Z,34.60
2018-03-26T06:31:34.078Z,35.37
2018-03-26T06:34:37.276Z,34.43
2018-03-26T06:37:40.472Z,35.20
2018-03-26T06:40:43.723Z,35.07
2018-03-26T06:43:46.963Z,38.63
2018-03-26T06:46:50.156Z,34.80
2018-03-26T06:49:53.401Z,35.27
2018-03-26T06:52:56.551Z,31.80
2018-03-26T06:55:59.750Z,33.57
2018-03-26T06:59:02.947Z,35.73
2018-03-26T07:02:06.180Z,32.13
2018-03-26T07:05:09.370Z,33.57
2018-03-26T07:08:12.558Z,35.43
2018-03-26T07:11:15.811Z,34.37
2018-03-26T07:14:19.010Z,32.07
2018-03-26T07:17:22.230Z,33.57
2018-03-26T07:20:25.470Z,34.17
2018-03-26T07:23:29.111Z,41.77
2018-03-26T07:26:32.426Z,35.27
2018-03-26T07:29:35.687Z,32.17
2018-03-26T07:32:38.931Z,34.40
2018-03-26T07:35:42.210Z,38.50
2018-03-26T07:38:45.466Z,35.70
2018-03-26T07:41:48.654Z,39.60
2018-03-26T07:44:51.822Z,41.37
2018-03-26T07:47:55.016Z,39.23
2018-03-26T07:50:58.188Z,43.90
2018-03-26T07:54:01.363Z,44.53
2018-03-26T07:57:04.539Z,42.97
2018-03-26T08:00:07.766Z,40.73
2018-03-26T08:03:10.905Z,43.23
2018-03-26T08:06:14.098Z,46.27
2018-03-26T08:09:17.234Z,41.23
2018-03-26T08:12:20.390Z,43.43
2018-03-26T08:15:23.589Z,43.83
2018-03-26T08:18:26.773Z,44.03
2018-03-26T08:21:30.087Z,42.13
2018-03-26T08:24:33.276Z,44.53
2018-03-26T08:27:36.423Z,47.40
2018-03-26T08:30:39.595Z,44.27
2018-03-26T08:33:42.794Z,45.27
2018-03-26T08:36:45.968Z,45.20
2018-03-26T08:39:49.120Z,44.87
2018-03-26T08:42:52.295Z,44.67
2018-03-26T08:45:55.482Z,44.10
2018-03-26T08:48:58.895Z,44.03
2018-03-26T08:52:02.148Z,42.27
2018-03-26T08:55:05.357Z,43.57
2018-03-26T08:58:08.551Z,45.43
2018-03-26T09:01:11.804Z,45.10
2018-03-26T09:04:15.081Z,44.27
2018-03-26T09:07:18.233Z,44.10
2018-03-26T09:10:21.453Z,45.47
2018-03-26T09:13:24.657Z,45.63
2018-03-26T09:16:27.756Z,48.93
2018-03-26T09:19:38.268Z,48.10
2018-03-26T09:22:41.695Z,50.93
2018-03-26T09:25:45.169Z,47.33
2018-03-26T09:28:48.596Z,49.60
2018-03-26T09:31:52.127Z,48.03
2018-03-26T09:34:55.735Z,43.57
2018-03-26T09:37:59.422Z,44.77
2018-03-26T09:41:02.912Z,45.23
2018-03-26T09:44:06.254Z,50.93
2018-03-26T09:47:09.761Z,46.20
2018-03-26T09:50:13.092Z,47.90
2018-03-26T09:53:16.395Z,42.70
2018-03-26T09:56:21.613Z,46.30
2018-03-26T09:59:24.987Z,45.17
2018-03-26T10:02:28.437Z,42.63
2018-03-26T10:05:31.875Z,45.80
2018-03-26T10:08:35.316Z,51.43
2018-03-26T10:11:38.661Z,49.90
2018-03-26T10:14:42.024Z,44.33
2018-03-26T10:17:47.221Z,47.23
2018-03-26T10:20:51.893Z,44.07
2018-03-26T10:23:55.584Z,48.27
2018-03-26T10:26:59.293Z,43.57
2018-03-26T10:30:02.631Z,45.70
2018-03-26T10:33:05.855Z,44.03
2018-03-26T10:36:09.932Z,45.20
2018-03-26T10:39:13.075Z,45.07
2018-03-26T10:42:16.226Z,42.20
2018-03-26T10:45:20.839Z,46.53
2018-03-26T10:48:24.992Z,43.80
2018-03-26T10:51:28.124Z,47.20
2018-03-26T10:54:31.865Z,39.13
2018-03-26T10:57:35.000Z,44.77
2018-03-26T11:00:38.657Z,44.00
2018-03-26T11:03:41.806Z,42.37
2018-03-26T11:06:44.964Z,42.93
2018-03-26T11:09:48.116Z,40.40
2018-03-26T11:12:51.259Z,44.10
2018-03-26T11:15:54.425Z,38.93
2018-03-26T11:18:57.539Z,42.77
2018-03-26T11:22:01.094Z,42.47
2018-03-26T11:25:05.890Z,40.63
2018-03-26T11:28:09.189Z,41.43
2018-03-26T11:31:12.446Z,42.13
2018-03-26T11:34:15.580Z,39.80
2018-03-26T11:37:19.373Z,42.47
2018-03-26T11:40:22.492Z,40.07
2018-03-26T11:43:25.705Z,44.03
2018-03-26T11:46:28.825Z,44.90
2018-03-26T11:49:31.971Z,39.70
2018-03-26T11:52:35.960Z,40.30
2018-03-26T11:55:39.091Z,40.40
2018-03-26T11:58:42.255Z,43.93
2018-03-26T12:01:45.503Z,38.43
2018-03-26T12:04:48.638Z,46.37
2018-03-26T12:07:51.800Z,39.50
2018-03-26T12:10:54.976Z,39.87
2018-03-26T12:13:58.089Z,40.77
2018-03-26T12:17:01.242Z,40.77
2018-03-26T12:20:14.360Z,41.23
2018-03-26T12:23:26.557Z,38.67
2018-03-26T12:26:29.956Z,41.27
2018-03-26T12:30:38.025Z,39.17
2018-03-26T12:33:50.189Z,40.93
2018-03-26T12:36:53.307Z,42.50
2018-03-26T12:39:56.462Z,39.87
2018-03-26T12:42:59.638Z,38.10
2018-03-26T12:46:42.276Z,41.20
2018-03-26T12:49:45.389Z,41.23
2018-03-26T12:52:52.991Z,40.43
2018-03-26T12:55:57.397Z,36.70
2018-03-26T12:59:00.850Z,40.37
2018-03-26T13:02:27.209Z,36.63
2018-03-26T13:05:30.649Z,43.20
2018-03-26T13:08:34.097Z,40.07
2018-03-26T13:11:37.531Z,38.17
2018-03-26T13:14:40.843Z,43.40
2018-03-26T13:17:44.393Z,39.57
2018-03-26T13:20:47.719Z,36.40
2018-03-26T13:23:51.052Z,37.97
2018-03-26T13:26:54.533Z,39.20
2018-03-26T13:29:58.002Z,37.63
2018-03-26T13:33:02.261Z,40.23
2018-03-26T13:36:05.615Z,40.67
2018-03-26T13:39:09.224Z,42.33
2018-03-26T13:42:12.415Z,36.77
2018-03-26T13:45:15.532Z,40.37
2018-03-26T13:48:20.146Z,39.27
2018-03-26T13:51:26.399Z,37.93
2018-03-26T13:54:31.184Z,38.07
2018-03-26T13:57:35.293Z,44.87
2018-03-26T14:00:38.435Z,39.80
2018-03-26T14:03:42.287Z,40.30
2018-03-26T14:07:01.621Z,36.70
2018-03-26T14:12:25.050Z,37.40
2018-03-26T14:17:57.249Z,41.13
2018-03-26T14:21:01.615Z,39.50
2018-03-26T14:24:05.166Z,45.03
2018-03-26T14:27:08.605Z,40.33
2018-03-26T14:30:12.001Z,39.07
2018-03-26T14:33:15.438Z,40.73
2018-03-26T14:36:18.740Z,43.27
2018-03-26T14:39:23.263Z,36.87
2018-03-26T14:42:27.765Z,38.13
2018-03-26T14:45:31.144Z,35.37
2018-03-26T14:48:35.958Z,36.67
2018-03-26T14:51:40.498Z,31.00
2018-03-26T14:54:44.940Z,30.67
2018-03-26T14:57:48.378Z,35.83
2018-03-26T15:00:51.787Z,35.13
2018-03-26T15:03:59.351Z,34.33
2018-03-26T15:07:03.792Z,32.53
2018-03-26T15:10:07.271Z,31.87
2018-03-26T15:13:10.679Z,32.77
2018-03-26T15:16:14.258Z,29.77
2018-03-26T15:19:17.718Z,27.23
2018-03-26T15:22:21.165Z,30.57
2018-03-26T15:25:24.618Z,30.57
2018-03-26T15:28:29.147Z,30.63
2018-03-26T15:31:32.472Z,30.63
2018-03-26T15:34:35.923Z,33.10
2018-03-26T15:37:39.561Z,30.17
2018-03-26T15:40:42.791Z,33.33
2018-03-26T15:43:46.921Z,34.27
2018-03-26T15:46:51.260Z,31.80
2018-03-26T15:49:56.050Z,31.80
2018-03-26T15:52:59.586Z,34.27
2018-03-26T15:56:04.209Z,31.90
2018-03-26T15:59:09.786Z,31.37
2018-03-26T16:02:13.370Z,30.20
2018-03-26T16:05:22.999Z,31.20
2018-03-26T16:08:27.879Z,32.57
2018-03-26T16:11:32.279Z,32.80
2018-03-26T16:14:36.902Z,30.67
2018-03-26T16:17:42.284Z,29.80
2018-03-26T16:20:46.968Z,32.17
2018-03-26T16:23:55.883Z,32.57
2018-03-26T16:26:59.435Z,31.60
2018-03-26T16:30:03.103Z,33.57
2018-03-26T16:33:06.750Z,34.17
2018-03-26T16:36:10.367Z,30.97
2018-03-26T16:39:13.982Z,32.80
2018-03-26T16:42:21.516Z,33.63
2018-03-26T16:45:27.049Z,37.83
2018-03-26T16:48:30.604Z,37.77
2018-03-26T16:51:34.146Z,31.93
2018-03-26T16:54:39.706Z,35.00
2018-03-26T16:57:43.247Z,34.33
2018-03-26T17:00:46.814Z,34.67
2018-03-26T17:03:50.507Z,39.57
2018-03-26T17:06:54.080Z,33.03
2018-03-26T17:10:13.541Z,33.33
2018-03-26T17:13:17.047Z,35.63
2018-03-26T17:16:20.727Z,34.03
2018-03-26T17:19:24.951Z,36.17
2018-03-26T17:22:31.033Z,37.77
2018-03-26T17:25:46.000Z,34.77
2018-03-26T17:28:56.693Z,34.70
2018-03-26T17:32:00.779Z,34.07
2018-03-26T17:35:04.272Z,32.47
2018-03-26T17:40:05.393Z,37.63
2018-03-26T17:43:09.891Z,42.87
2018-03-26T17:46:13.408Z,36.23
2018-03-26T17:49:16.976Z,36.93
2018-03-26T17:52:22.535Z,35.43
2018-03-26T17:55:28.080Z,33.73
2018-03-26T17:58:33.448Z,33.30
2018-03-26T18:01:36.954Z,37.53
2018-03-26T18:04:40.514Z,36.77
2018-03-26T18:07:44.174Z,39.00
2018-03-26T18:10:48.860Z,39.83
2018-03-26T18:13:53.555Z,37.53
2018-03-26T18:16:57.391Z,37.20
2018-03-26T18:20:01.322Z,38.93
2018-03-26T18:23:05.069Z,37.03
2018-03-26T18:26:17.047Z,36.17
2018-03-26T18:29:20.656Z,36.07
2018-03-26T18:32:24.145Z,33.93
2018-03-26T18:35:27.646Z,36.03
2018-03-26T18:38:31.730Z,37.53
2018-03-26T18:41:36.212Z,41.77
2018-03-26T18:44:39.781Z,41.17
2018-03-26T18:47:44.262Z,39.23
2018-03-26T18:50:47.877Z,42.83
2018-03-26T18:53:52.342Z,45.00
2018-03-26T18:56:57.886Z,47.97
2018-03-26T19:00:03.426Z,50.90
2018-03-26T19:03:06.922Z,54.80
2018-03-26T19:06:11.865Z,53.30
2018-03-26T19:09:15.858Z,57.40
2018-03-26T19:12:19.464Z,56.03
2018-03-26T19:15:23.333Z,60.40
2018-03-26T19:18:27.008Z,58.23
2018-03-26T19:21:50.488Z,57.00
2018-03-26T19:24:56.013Z,55.27
2018-03-26T19:28:00.772Z,58.83
2018-03-26T19:31:04.069Z,59.47
2018-03-26T19:34:07.330Z,56.50
2018-03-26T19:37:10.634Z,57.87
2018-03-26T19:40:13.915Z,57.30
2018-03-26T19:43:17.123Z,59.67
2018-03-26T19:46:27.415Z,66.43
2018-03-26T19:49:30.743Z,58.70
2018-03-26T19:52:33.882Z,57.23
2018-03-26T19:55:37.157Z,59.80
2018-03-26T19:58:40.371Z,58.23
2018-03-26T20:01:43.618Z,64.77
2018-03-26T20:04:46.819Z,61.68
2018-03-26T20:07:50.061Z,60.50
2018-03-26T20:10:53.410Z,60.60
2018-03-26T20:13:56.656Z,57.43
2018-03-26T20:17:00.053Z,60.00
2018-03-26T20:20:03.328Z,64.45
2018-03-26T20:23:06.519Z,58.47
2018-03-26T20:26:09.717Z,59.30
2018-03-26T20:29:12.918Z,62.57
2018-03-26T20:32:16.397Z,63.50
2018-03-26T20:35:19.728Z,59.38
2018-03-26T20:38:23.121Z,58.80
2018-03-26T20:41:26.310Z,58.37
2018-03-26T20:44:29.608Z,58.30
2018-03-26T20:47:32.915Z,60.57
2018-03-26T20:50:36.186Z,59.60
2018-03-26T20:53:39.372Z,57.13
2018-03-26T20:56:42.578Z,61.90
2018-03-26T20:59:45.788Z,60.20
2018-03-26T21:02:48.977Z,57.40
2018-03-26T21:05:52.153Z,55.33
2018-03-26T21:08:55.342Z,56.33
2018-03-26T21:11:58.532Z,59.20
2018-03-26T21:15:01.743Z,60.27
2018-03-26T21:18:05.143Z,56.70
2018-03-26T21:21:09.088Z,59.30
2018-03-26T21:24:13.023Z,60.77
2018-03-26T21:27:17.322Z,56.93
2018-03-26T21:30:20.665Z,58.65
2018-03-26T21:33:23.892Z,59.23
2018-03-26T21:36:27.238Z,59.83
2018-03-26T21:39:30.558Z,57.97
2018-03-26T21:42:33.803Z,51.45
2018-03-26T21:45:37.070Z,55.35
2018-03-26T21:48:40.346Z,56.30
2018-03-26T21:51:43.594Z,52.73
2018-03-26T21:54:47.736Z,57.85
2018-03-26T21:57:51.012Z,55.57
2018-03-26T22:00:54.310Z,54.17
2018-03-26T22:03:57.597Z,52.63
2018-03-26T22:07:00.794Z,53.87
2018-03-26T22:10:04.268Z,59.10
2018-03-26T22:13:07.492Z,51.80
2018-03-26T22:16:10.698Z,56.23
2018-03-26T22:19:13.959Z,52.62
2018-03-26T22:22:17.295Z,52.67
2018-03-26T22:25:20.604Z,57.97
2018-03-26T22:28:23.938Z,64.27
2018-03-26T22:31:27.164Z,61.93
2018-03-26T22:34:30.575Z,63.07
2018-03-26T22:37:33.884Z,60.70
2018-03-26T22:40:37.067Z,59.43
2018-03-26T22:43:40.377Z,68.60
2018-03-26T22:46:43.663Z,60.43
2018-03-26T22:49:46.862Z,65.30
2018-03-26T22:52:50.161Z,67.70
2018-03-26T22:55:53.364Z,60.75
2018-03-26T22:58:56.610Z,63.38
2018-03-26T23:01:59.880Z,61.30
2018-03-26T23:05:04.088Z,61.63
2018-03-26T23:08:07.371Z,59.73
2018-03-26T23:11:10.567Z,58.10
2018-03-26T23:14:13.854Z,57.03
2018-03-26T23:17:17.165Z,56.20
2018-03-26T23:20:20.459Z,55.00
2018-03-26T23:23:23.675Z,51.00
2018-03-26T23:26:26.950Z,51.50
2018-03-26T23:29:30.325Z,51.33
2018-03-26T23:32:33.496Z,52.97
2018-03-26T23:35:36.705Z,52.20
2018-03-26T23:38:39.905Z,53.10
2018-03-26T23:41:43.082Z,50.10
2018-03-26T23:44:46.317Z,51.60
2018-03-26T23:47:49.511Z,55.10
2018-03-26T23:50:52.728Z,52.00
2018-03-26T23:53:55.983Z,47.83
2018-03-26T23:56:59.210Z,53.10
